sensor_id;sensor_type;location;lat;lon;timestamp;P1;durP1;ratioP1;P2;durP2;ratioP2
64543;SDS011;50936;51.660;5.616;2024-03-08T00:00:53;37.78;;;16.08;;
64543;SDS011;50936;51.660;5.616;2024-03-08T00:03:40;38.97;;;17.73;;
64543;SDS011;50936;51.660;5.616;2024-03-08T00:06:27;35.92;;;15.98;;
64543;SDS011;50936;51.660;5.616;2024-03-08T00:09:15;36.83;;;16.25;;
64543;SDS011;50936;51.660;5.616;2024-03-08T00:12:02;34.15;;;15.70;;
64543;SDS011;50936;51.660;5.616;2024-03-08T00:14:50;38.83;;;16.77;;
64543;SDS011;50936;51.660;5.616;2024-03-08T00:17:37;37.95;;;17.52;;
64543;SDS011;50936;51.660;5.616;2024-03-08T00:20:25;40.30;;;17.25;;
64543;SDS011;50936;51.660;5.616;2024-03-08T00:23:12;34.95;;;16.00;;
64543;SDS011;50936;51.660;5.616;2024-03-08T00:25:59;36.90;;;16.98;;
64543;SDS011;50936;51.660;5.616;2024-03-08T00:28:48;33.63;;;16.75;;
64543;SDS011;50936;51.660;5.616;2024-03-08T00:31:35;32.78;;;14.70;;
64543;SDS011;50936;51.660;5.616;2024-03-08T00:34:23;34.38;;;16.20;;
64543;SDS011;50936;51.660;5.616;2024-03-08T00:37:10;34.15;;;16.52;;
64543;SDS011;50936;51.660;5.616;2024-03-08T00:39:57;39.20;;;16.52;;
64543;SDS011;50936;51.660;5.616;2024-03-08T00:42:45;36.08;;;16.45;;
64543;SDS011;50936;51.660;5.616;2024-03-08T00:45:32;34.22;;;16.33;;
64543;SDS011;50936;51.660;5.616;2024-03-08T00:48:20;33.65;;;16.45;;
64543;SDS011;50936;51.660;5.616;2024-03-08T00:51:07;36.13;;;16.67;;
64543;SDS011;50936;51.660;5.616;2024-03-08T00:53:55;32.50;;;15.73;;
64543;SDS011;50936;51.660;5.616;2024-03-08T00:56:42;36.72;;;17.25;;
64543;SDS011;50936;51.660;5.616;2024-03-08T00:59:30;35.22;;;16.58;;
64543;SDS011;50936;51.660;5.616;2024-03-08T01:02:21;34.33;;;16.05;;
64543;SDS011;50936;51.660;5.616;2024-03-08T01:05:09;32.15;;;15.82;;
64543;SDS011;50936;51.660;5.616;2024-03-08T01:07:57;39.28;;;16.48;;
64543;SDS011;50936;51.660;5.616;2024-03-08T01:10:44;32.45;;;15.38;;
64543;SDS011;50936;51.660;5.616;2024-03-08T01:13:31;33.53;;;16.35;;
64543;SDS011;50936;51.660;5.616;2024-03-08T01:16:19;33.08;;;16.15;;
64543;SDS011;50936;51.660;5.616;2024-03-08T01:19:08;32.13;;;16.00;;
64543;SDS011;50936;51.660;5.616;2024-03-08T01:21:55;34.85;;;16.25;;
64543;SDS011;50936;51.660;5.616;2024-03-08T01:24:43;37.15;;;17.02;;
64543;SDS011;50936;51.660;5.616;2024-03-08T01:27:31;33.92;;;16.48;;
64543;SDS011;50936;51.660;5.616;2024-03-08T01:30:18;35.15;;;16.45;;
64543;SDS011;50936;51.660;5.616;2024-03-08T01:33:05;30.63;;;15.18;;
64543;SDS011;50936;51.660;5.616;2024-03-08T01:35:53;32.40;;;16.48;;
64543;SDS011;50936;51.660;5.616;2024-03-08T01:38:42;35.28;;;16.27;;
64543;SDS011;50936;51.660;5.616;2024-03-08T01:41:29;32.58;;;15.73;;
64543;SDS011;50936;51.660;5.616;2024-03-08T01:44:17;30.90;;;15.63;;
64543;SDS011;50936;51.660;5.616;2024-03-08T01:47:04;35.40;;;16.52;;
64543;SDS011;50936;51.660;5.616;2024-03-08T01:49:52;38.20;;;17.27;;
64543;SDS011;50936;51.660;5.616;2024-03-08T01:52:40;37.00;;;16.98;;
64543;SDS011;50936;51.660;5.616;2024-03-08T01:55:27;34.47;;;16.48;;
64543;SDS011;50936;51.660;5.616;2024-03-08T01:58:14;35.33;;;16.33;;
64543;SDS011;50936;51.660;5.616;2024-03-08T02:01:02;35.15;;;16.45;;
64543;SDS011;50936;51.660;5.616;2024-03-08T02:03:50;38.08;;;17.30;;
64543;SDS011;50936;51.660;5.616;2024-03-08T02:06:38;36.92;;;17.40;;
64543;SDS011;50936;51.660;5.616;2024-03-08T02:09:26;35.60;;;17.38;;
64543;SDS011;50936;51.660;5.616;2024-03-08T02:12:14;36.47;;;17.55;;
64543;SDS011;50936;51.660;5.616;2024-03-08T02:15:02;36.47;;;17.45;;
64543;SDS011;50936;51.660;5.616;2024-03-08T02:17:49;35.17;;;17.52;;
64543;SDS011;50936;51.660;5.616;2024-03-08T02:20:36;35.30;;;16.70;;
64543;SDS011;50936;51.660;5.616;2024-03-08T02:23:24;37.13;;;17.70;;
64543;SDS011;50936;51.660;5.616;2024-03-08T02:26:12;37.38;;;18.27;;
64543;SDS011;50936;51.660;5.616;2024-03-08T02:29:00;36.55;;;18.60;;
64543;SDS011;50936;51.660;5.616;2024-03-08T02:31:52;37.83;;;18.00;;
64543;SDS011;50936;51.660;5.616;2024-03-08T02:34:39;35.20;;;17.35;;
64543;SDS011;50936;51.660;5.616;2024-03-08T02:37:27;36.03;;;17.90;;
64543;SDS011;50936;51.660;5.616;2024-03-08T02:40:15;38.28;;;18.15;;
64543;SDS011;50936;51.660;5.616;2024-03-08T02:43:03;38.15;;;17.15;;
64543;SDS011;50936;51.660;5.616;2024-03-08T02:45:51;35.65;;;18.40;;
64543;SDS011;50936;51.660;5.616;2024-03-08T02:48:41;37.85;;;18.50;;
64543;SDS011;50936;51.660;5.616;2024-03-08T02:51:29;42.80;;;20.02;;
64543;SDS011;50936;51.660;5.616;2024-03-08T02:54:17;37.63;;;18.20;;
64543;SDS011;50936;51.660;5.616;2024-03-08T02:57:06;39.88;;;19.30;;
64543;SDS011;50936;51.660;5.616;2024-03-08T02:59:54;41.97;;;19.05;;
64543;SDS011;50936;51.660;5.616;2024-03-08T03:02:42;36.70;;;17.05;;
64543;SDS011;50936;51.660;5.616;2024-03-08T03:05:29;42.63;;;19.60;;
64543;SDS011;50936;51.660;5.616;2024-03-08T03:08:17;38.53;;;20.35;;
64543;SDS011;50936;51.660;5.616;2024-03-08T03:11:05;39.70;;;18.00;;
64543;SDS011;50936;51.660;5.616;2024-03-08T03:13:54;38.80;;;17.90;;
64543;SDS011;50936;51.660;5.616;2024-03-08T03:16:42;41.20;;;19.13;;
64543;SDS011;50936;51.660;5.616;2024-03-08T03:19:30;45.92;;;19.75;;
64543;SDS011;50936;51.660;5.616;2024-03-08T03:22:18;40.95;;;20.40;;
64543;SDS011;50936;51.660;5.616;2024-03-08T03:25:09;41.10;;;18.33;;
64543;SDS011;50936;51.660;5.616;2024-03-08T03:27:56;39.13;;;19.08;;
64543;SDS011;50936;51.660;5.616;2024-03-08T03:30:45;39.15;;;18.70;;
64543;SDS011;50936;51.660;5.616;2024-03-08T03:33:33;45.22;;;20.02;;
64543;SDS011;50936;51.660;5.616;2024-03-08T03:36:21;46.05;;;20.88;;
64543;SDS011;50936;51.660;5.616;2024-03-08T03:39:08;43.35;;;19.90;;
64543;SDS011;50936;51.660;5.616;2024-03-08T03:42:03;42.03;;;19.83;;
64543;SDS011;50936;51.660;5.616;2024-03-08T03:44:51;42.63;;;20.55;;
64543;SDS011;50936;51.660;5.616;2024-03-08T03:47:39;44.22;;;20.13;;
64543;SDS011;50936;51.660;5.616;2024-03-08T03:50:26;39.50;;;19.02;;
64543;SDS011;50936;51.660;5.616;2024-03-08T03:53:13;43.15;;;20.52;;
64543;SDS011;50936;51.660;5.616;2024-03-08T03:56:01;42.25;;;19.58;;
64543;SDS011;50936;51.660;5.616;2024-03-08T03:58:48;46.67;;;21.23;;
64543;SDS011;50936;51.660;5.616;2024-03-08T04:01:36;45.55;;;19.58;;
64543;SDS011;50936;51.660;5.616;2024-03-08T04:04:29;45.63;;;21.02;;
64543;SDS011;50936;51.660;5.616;2024-03-08T04:07:16;45.95;;;21.65;;
64543;SDS011;50936;51.660;5.616;2024-03-08T04:10:04;42.75;;;19.02;;
64543;SDS011;50936;51.660;5.616;2024-03-08T04:12:53;48.17;;;21.33;;
64543;SDS011;50936;51.660;5.616;2024-03-08T04:15:41;46.05;;;21.30;;
64543;SDS011;50936;51.660;5.616;2024-03-08T04:18:35;44.05;;;19.23;;
64543;SDS011;50936;51.660;5.616;2024-03-08T04:21:24;43.15;;;21.25;;
64543;SDS011;50936;51.660;5.616;2024-03-08T04:24:12;42.58;;;20.48;;
64543;SDS011;50936;51.660;5.616;2024-03-08T04:26:59;43.38;;;20.48;;
64543;SDS011;50936;51.660;5.616;2024-03-08T04:29:47;44.13;;;20.80;;
64543;SDS011;50936;51.660;5.616;2024-03-08T04:32:34;46.53;;;20.95;;
64543;SDS011;50936;51.660;5.616;2024-03-08T04:35:21;45.55;;;21.00;;
64543;SDS011;50936;51.660;5.616;2024-03-08T04:38:09;44.58;;;20.60;;
64543;SDS011;50936;51.660;5.616;2024-03-08T04:40:57;46.00;;;21.63;;
64543;SDS011;50936;51.660;5.616;2024-03-08T04:43:44;46.35;;;21.08;;
64543;SDS011;50936;51.660;5.616;2024-03-08T04:46:32;45.50;;;20.95;;
64543;SDS011;50936;51.660;5.616;2024-03-08T04:49:19;45.50;;;20.92;;
64543;SDS011;50936;51.660;5.616;2024-03-08T04:52:08;44.90;;;20.77;;
64543;SDS011;50936;51.660;5.616;2024-03-08T04:54:55;46.60;;;21.45;;
64543;SDS011;50936;51.660;5.616;2024-03-08T04:57:43;49.05;;;22.08;;
64543;SDS011;50936;51.660;5.616;2024-03-08T05:00:32;47.47;;;21.27;;
64543;SDS011;50936;51.660;5.616;2024-03-08T05:03:20;45.90;;;21.13;;
64543;SDS011;50936;51.660;5.616;2024-03-08T05:06:08;48.90;;;21.92;;
64543;SDS011;50936;51.660;5.616;2024-03-08T05:08:55;43.90;;;20.17;;
64543;SDS011;50936;51.660;5.616;2024-03-08T05:11:43;45.35;;;20.00;;
64543;SDS011;50936;51.660;5.616;2024-03-08T05:14:31;48.03;;;23.15;;
64543;SDS011;50936;51.660;5.616;2024-03-08T05:17:19;46.08;;;21.17;;
64543;SDS011;50936;51.660;5.616;2024-03-08T05:20:06;49.95;;;21.73;;
64543;SDS011;50936;51.660;5.616;2024-03-08T05:22:59;44.42;;;19.92;;
64543;SDS011;50936;51.660;5.616;2024-03-08T05:25:47;49.70;;;21.80;;
64543;SDS011;50936;51.660;5.616;2024-03-08T05:28:34;47.42;;;20.98;;
64543;SDS011;50936;51.660;5.616;2024-03-08T05:31:22;46.83;;;21.35;;
64543;SDS011;50936;51.660;5.616;2024-03-08T05:34:09;45.88;;;21.00;;
64543;SDS011;50936;51.660;5.616;2024-03-08T05:36:57;46.70;;;20.52;;
64543;SDS011;50936;51.660;5.616;2024-03-08T05:39:45;46.88;;;20.80;;
64543;SDS011;50936;51.660;5.616;2024-03-08T05:42:32;48.28;;;22.45;;
64543;SDS011;50936;51.660;5.616;2024-03-08T05:45:20;48.20;;;20.42;;
64543;SDS011;50936;51.660;5.616;2024-03-08T05:48:07;51.53;;;22.17;;
64543;SDS011;50936;51.660;5.616;2024-03-08T05:50:55;45.75;;;21.20;;
64543;SDS011;50936;51.660;5.616;2024-03-08T05:53:43;49.42;;;22.13;;
64543;SDS011;50936;51.660;5.616;2024-03-08T05:56:31;47.42;;;20.35;;
64543;SDS011;50936;51.660;5.616;2024-03-08T05:59:19;47.80;;;21.50;;
64543;SDS011;50936;51.660;5.616;2024-03-08T06:02:06;44.72;;;20.65;;
64543;SDS011;50936;51.660;5.616;2024-03-08T06:04:54;46.47;;;20.58;;
64543;SDS011;50936;51.660;5.616;2024-03-08T06:07:41;51.53;;;21.52;;
64543;SDS011;50936;51.660;5.616;2024-03-08T06:10:29;50.42;;;22.45;;
64543;SDS011;50936;51.660;5.616;2024-03-08T06:13:16;45.60;;;21.42;;
64543;SDS011;50936;51.660;5.616;2024-03-08T06:16:03;54.05;;;22.73;;
64543;SDS011;50936;51.660;5.616;2024-03-08T06:18:51;49.28;;;21.75;;
64543;SDS011;50936;51.660;5.616;2024-03-08T06:21:39;47.97;;;20.92;;
64543;SDS011;50936;51.660;5.616;2024-03-08T06:24:26;45.30;;;20.15;;
64543;SDS011;50936;51.660;5.616;2024-03-08T06:27:13;45.53;;;21.38;;
64543;SDS011;50936;51.660;5.616;2024-03-08T06:30:01;49.90;;;20.73;;
64543;SDS011;50936;51.660;5.616;2024-03-08T06:32:51;45.10;;;21.15;;
64543;SDS011;50936;51.660;5.616;2024-03-08T06:35:38;45.03;;;21.20;;
64543;SDS011;50936;51.660;5.616;2024-03-08T06:38:26;48.80;;;21.17;;
64543;SDS011;50936;51.660;5.616;2024-03-08T06:41:13;47.50;;;20.83;;
64543;SDS011;50936;51.660;5.616;2024-03-08T06:44:04;45.97;;;20.02;;
64543;SDS011;50936;51.660;5.616;2024-03-08T06:46:51;46.72;;;20.63;;
64543;SDS011;50936;51.660;5.616;2024-03-08T06:49:40;48.30;;;20.65;;
64543;SDS011;50936;51.660;5.616;2024-03-08T06:52:28;45.20;;;20.52;;
64543;SDS011;50936;51.660;5.616;2024-03-08T06:55:15;48.75;;;23.27;;
64543;SDS011;50936;51.660;5.616;2024-03-08T06:58:04;45.92;;;20.65;;
64543;SDS011;50936;51.660;5.616;2024-03-08T07:00:53;46.25;;;20.63;;
64543;SDS011;50936;51.660;5.616;2024-03-08T07:03:45;45.92;;;19.70;;
64543;SDS011;50936;51.660;5.616;2024-03-08T07:06:32;44.95;;;20.90;;
64543;SDS011;50936;51.660;5.616;2024-03-08T07:09:23;42.92;;;19.15;;
64543;SDS011;50936;51.660;5.616;2024-03-08T07:12:11;44.53;;;20.80;;
64543;SDS011;50936;51.660;5.616;2024-03-08T07:15:00;43.10;;;19.95;;
64543;SDS011;50936;51.660;5.616;2024-03-08T07:17:47;41.60;;;19.77;;
64543;SDS011;50936;51.660;5.616;2024-03-08T07:20:35;39.15;;;18.95;;
64543;SDS011;50936;51.660;5.616;2024-03-08T07:23:24;45.17;;;20.67;;
64543;SDS011;50936;51.660;5.616;2024-03-08T07:26:29;41.22;;;20.25;;
64543;SDS011;50936;51.660;5.616;2024-03-08T07:29:17;43.25;;;20.95;;
64543;SDS011;50936;51.660;5.616;2024-03-08T07:32:07;41.10;;;19.08;;
64543;SDS011;50936;51.660;5.616;2024-03-08T07:35:07;39.88;;;19.65;;
64543;SDS011;50936;51.660;5.616;2024-03-08T07:37:55;46.72;;;19.52;;
64543;SDS011;50936;51.660;5.616;2024-03-08T07:40:42;41.72;;;20.23;;
64543;SDS011;50936;51.660;5.616;2024-03-08T07:43:32;41.92;;;19.40;;
64543;SDS011;50936;51.660;5.616;2024-03-08T07:46:20;39.22;;;20.50;;
64543;SDS011;50936;51.660;5.616;2024-03-08T07:49:07;40.65;;;19.08;;
64543;SDS011;50936;51.660;5.616;2024-03-08T07:51:57;38.58;;;20.02;;
64543;SDS011;50936;51.660;5.616;2024-03-08T07:54:46;37.67;;;18.67;;
64543;SDS011;50936;51.660;5.616;2024-03-08T07:57:33;41.35;;;18.52;;
64543;SDS011;50936;51.660;5.616;2024-03-08T08:00:21;41.58;;;19.25;;
64543;SDS011;50936;51.660;5.616;2024-03-08T08:03:08;42.47;;;20.25;;
64543;SDS011;50936;51.660;5.616;2024-03-08T08:05:56;43.15;;;18.95;;
64543;SDS011;50936;51.660;5.616;2024-03-08T08:08:43;40.22;;;19.65;;
64543;SDS011;50936;51.660;5.616;2024-03-08T08:11:30;42.33;;;20.15;;
64543;SDS011;50936;51.660;5.616;2024-03-08T08:14:19;45.45;;;20.77;;
64543;SDS011;50936;51.660;5.616;2024-03-08T08:17:08;43.95;;;19.98;;
64543;SDS011;50936;51.660;5.616;2024-03-08T08:19:55;39.90;;;19.75;;
64543;SDS011;50936;51.660;5.616;2024-03-08T08:22:42;41.03;;;19.70;;
64543;SDS011;50936;51.660;5.616;2024-03-08T08:25:30;36.00;;;17.58;;
64543;SDS011;50936;51.660;5.616;2024-03-08T08:28:17;41.83;;;19.38;;
64543;SDS011;50936;51.660;5.616;2024-03-08T08:31:05;38.83;;;19.85;;
64543;SDS011;50936;51.660;5.616;2024-03-08T08:33:53;38.03;;;19.65;;
64543;SDS011;50936;51.660;5.616;2024-03-08T08:36:45;40.90;;;19.30;;
64543;SDS011;50936;51.660;5.616;2024-03-08T08:39:32;40.55;;;19.27;;
64543;SDS011;50936;51.660;5.616;2024-03-08T08:42:19;40.38;;;19.33;;
64543;SDS011;50936;51.660;5.616;2024-03-08T08:45:07;42.85;;;20.38;;
64543;SDS011;50936;51.660;5.616;2024-03-08T08:48:03;39.00;;;19.58;;
64543;SDS011;50936;51.660;5.616;2024-03-08T08:50:52;42.05;;;19.77;;
64543;SDS011;50936;51.660;5.616;2024-03-08T08:53:40;40.30;;;19.38;;
64543;SDS011;50936;51.660;5.616;2024-03-08T08:56:29;39.03;;;17.23;;
64543;SDS011;50936;51.660;5.616;2024-03-08T08:59:17;41.38;;;21.27;;
64543;SDS011;50936;51.660;5.616;2024-03-08T09:02:09;38.30;;;18.92;;
64543;SDS011;50936;51.660;5.616;2024-03-08T09:05:01;36.58;;;18.65;;
64543;SDS011;50936;51.660;5.616;2024-03-08T09:07:50;40.92;;;17.85;;
64543;SDS011;50936;51.660;5.616;2024-03-08T09:10:37;37.53;;;19.42;;
64543;SDS011;50936;51.660;5.616;2024-03-08T09:13:26;38.50;;;18.20;;
64543;SDS011;50936;51.660;5.616;2024-03-08T09:16:18;38.45;;;18.63;;
64543;SDS011;50936;51.660;5.616;2024-03-08T09:19:06;36.17;;;16.98;;
64543;SDS011;50936;51.660;5.616;2024-03-08T09:21:53;39.58;;;18.35;;
64543;SDS011;50936;51.660;5.616;2024-03-08T09:24:41;37.95;;;18.88;;
64543;SDS011;50936;51.660;5.616;2024-03-08T09:27:30;36.33;;;18.10;;
64543;SDS011;50936;51.660;5.616;2024-03-08T09:30:17;38.45;;;19.48;;
64543;SDS011;50936;51.660;5.616;2024-03-08T09:33:05;36.58;;;18.75;;
64543;SDS011;50936;51.660;5.616;2024-03-08T09:35:53;34.65;;;17.23;;
64543;SDS011;50936;51.660;5.616;2024-03-08T09:38:40;33.85;;;17.40;;
64543;SDS011;50936;51.660;5.616;2024-03-08T09:41:30;32.17;;;16.75;;
64543;SDS011;50936;51.660;5.616;2024-03-08T09:44:17;36.22;;;17.17;;
64543;SDS011;50936;51.660;5.616;2024-03-08T09:47:06;38.47;;;17.67;;
64543;SDS011;50936;51.660;5.616;2024-03-08T09:49:56;33.88;;;17.83;;
64543;SDS011;50936;51.660;5.616;2024-03-08T09:52:46;34.47;;;17.65;;
64543;SDS011;50936;51.660;5.616;2024-03-08T09:55:36;37.22;;;17.40;;
64543;SDS011;50936;51.660;5.616;2024-03-08T09:58:28;38.20;;;17.38;;
64543;SDS011;50936;51.660;5.616;2024-03-08T10:01:21;33.47;;;16.52;;
64543;SDS011;50936;51.660;5.616;2024-03-08T10:04:08;32.67;;;16.17;;
64543;SDS011;50936;51.660;5.616;2024-03-08T10:06:57;37.13;;;17.20;;
64543;SDS011;50936;51.660;5.616;2024-03-08T10:09:46;33.85;;;16.35;;
64543;SDS011;50936;51.660;5.616;2024-03-08T10:12:37;36.58;;;17.65;;
64543;SDS011;50936;51.660;5.616;2024-03-08T10:15:29;30.65;;;15.40;;
64543;SDS011;50936;51.660;5.616;2024-03-08T10:18:16;38.72;;;17.85;;
64543;SDS011;50936;51.660;5.616;2024-03-08T10:21:04;32.88;;;16.75;;
64543;SDS011;50936;51.660;5.616;2024-03-08T10:23:55;33.35;;;16.70;;
64543;SDS011;50936;51.660;5.616;2024-03-08T10:26:43;31.20;;;16.42;;
64543;SDS011;50936;51.660;5.616;2024-03-08T10:29:31;35.30;;;16.35;;
64543;SDS011;50936;51.660;5.616;2024-03-08T10:32:19;30.95;;;15.75;;
64543;SDS011;50936;51.660;5.616;2024-03-08T10:35:07;37.17;;;14.90;;
64543;SDS011;50936;51.660;5.616;2024-03-08T10:37:55;26.52;;;14.57;;
64543;SDS011;50936;51.660;5.616;2024-03-08T10:41:00;28.02;;;14.00;;
64543;SDS011;50936;51.660;5.616;2024-03-08T10:44:03;30.58;;;16.58;;
64543;SDS011;50936;51.660;5.616;2024-03-08T10:50:19;30.58;;;15.55;;
64543;SDS011;50936;51.660;5.616;2024-03-08T10:53:08;30.13;;;15.45;;
64543;SDS011;50936;51.660;5.616;2024-03-08T10:55:58;27.77;;;15.85;;
64543;SDS011;50936;51.660;5.616;2024-03-08T10:58:46;26.80;;;14.27;;
64543;SDS011;50936;51.660;5.616;2024-03-08T11:01:35;30.98;;;15.57;;
64543;SDS011;50936;51.660;5.616;2024-03-08T11:04:23;27.95;;;15.60;;
64543;SDS011;50936;51.660;5.616;2024-03-08T11:07:11;29.42;;;15.82;;
64543;SDS011;50936;51.660;5.616;2024-03-08T11:10:04;29.38;;;16.25;;
64543;SDS011;50936;51.660;5.616;2024-03-08T11:13:06;28.38;;;14.73;;
64543;SDS011;50936;51.660;5.616;2024-03-08T11:22:03;24.08;;;14.93;;
64543;SDS011;50936;51.660;5.616;2024-03-08T11:24:51;27.10;;;14.70;;
64543;SDS011;50936;51.660;5.616;2024-03-08T11:27:38;25.42;;;13.77;;
64543;SDS011;50936;51.660;5.616;2024-03-08T11:30:25;29.33;;;15.18;;
64543;SDS011;50936;51.660;5.616;2024-03-08T11:33:14;29.67;;;15.43;;
64543;SDS011;50936;51.660;5.616;2024-03-08T11:36:12;29.60;;;15.65;;
64543;SDS011;50936;51.660;5.616;2024-03-08T11:39:08;26.13;;;14.65;;
64543;SDS011;50936;51.660;5.616;2024-03-08T11:42:01;26.88;;;14.55;;
64543;SDS011;50936;51.660;5.616;2024-03-08T11:44:50;27.17;;;14.63;;
64543;SDS011;50936;51.660;5.616;2024-03-08T11:47:37;28.45;;;15.55;;
64543;SDS011;50936;51.660;5.616;2024-03-08T11:50:26;26.88;;;15.23;;
64543;SDS011;50936;51.660;5.616;2024-03-08T11:53:14;27.00;;;15.10;;
64543;SDS011;50936;51.660;5.616;2024-03-08T11:56:05;27.17;;;13.75;;
64543;SDS011;50936;51.660;5.616;2024-03-08T11:58:58;29.10;;;16.33;;
64543;SDS011;50936;51.660;5.616;2024-03-08T12:01:57;27.15;;;15.45;;
64543;SDS011;50936;51.660;5.616;2024-03-08T12:04:58;28.80;;;15.43;;
64543;SDS011;50936;51.660;5.616;2024-03-08T12:07:55;27.10;;;15.88;;
64543;SDS011;50936;51.660;5.616;2024-03-08T12:10:47;29.42;;;15.50;;
64543;SDS011;50936;51.660;5.616;2024-03-08T12:13:34;26.08;;;15.60;;
64543;SDS011;50936;51.660;5.616;2024-03-08T12:16:23;29.73;;;16.60;;
64543;SDS011;50936;51.660;5.616;2024-03-08T12:19:10;26.83;;;14.30;;
64543;SDS011;50936;51.660;5.616;2024-03-08T12:22:06;27.45;;;14.77;;
64543;SDS011;50936;51.660;5.616;2024-03-08T12:25:03;27.48;;;15.68;;
64543;SDS011;50936;51.660;5.616;2024-03-08T12:28:06;25.90;;;16.15;;
64543;SDS011;50936;51.660;5.616;2024-03-08T12:30:58;26.48;;;14.45;;
64543;SDS011;50936;51.660;5.616;2024-03-08T12:36:44;27.20;;;15.45;;
64543;SDS011;50936;51.660;5.616;2024-03-08T12:39:37;25.13;;;14.75;;
64543;SDS011;50936;51.660;5.616;2024-03-08T12:42:24;28.88;;;15.30;;
64543;SDS011;50936;51.660;5.616;2024-03-08T12:45:13;28.85;;;16.08;;
64543;SDS011;50936;51.660;5.616;2024-03-08T12:48:01;26.27;;;15.32;;
64543;SDS011;50936;51.660;5.616;2024-03-08T12:50:51;26.23;;;15.55;;
64543;SDS011;50936;51.660;5.616;2024-03-08T12:53:40;25.85;;;14.98;;
64543;SDS011;50936;51.660;5.616;2024-03-08T12:56:31;26.15;;;15.80;;
64543;SDS011;50936;51.660;5.616;2024-03-08T12:59:20;28.52;;;15.82;;
64543;SDS011;50936;51.660;5.616;2024-03-08T13:02:09;26.90;;;16.85;;
64543;SDS011;50936;51.660;5.616;2024-03-08T13:04:58;25.00;;;15.38;;
64543;SDS011;50936;51.660;5.616;2024-03-08T13:07:45;28.60;;;14.80;;
64543;SDS011;50936;51.660;5.616;2024-03-08T13:10:33;25.70;;;15.27;;
64543;SDS011;50936;51.660;5.616;2024-03-08T13:13:21;28.73;;;16.25;;
64543;SDS011;50936;51.660;5.616;2024-03-08T13:16:09;25.60;;;16.02;;
64543;SDS011;50936;51.660;5.616;2024-03-08T13:18:59;29.55;;;16.25;;
64543;SDS011;50936;51.660;5.616;2024-03-08T13:21:46;28.98;;;16.05;;
64543;SDS011;50936;51.660;5.616;2024-03-08T13:24:36;28.15;;;15.52;;
64543;SDS011;50936;51.660;5.616;2024-03-08T13:27:23;29.25;;;16.65;;
64543;SDS011;50936;51.660;5.616;2024-03-08T13:30:12;27.50;;;16.58;;
64543;SDS011;50936;51.660;5.616;2024-03-08T13:33:01;26.95;;;16.10;;
64543;SDS011;50936;51.660;5.616;2024-03-08T13:35:52;26.67;;;16.23;;
64543;SDS011;50936;51.660;5.616;2024-03-08T13:38:40;27.35;;;15.50;;
64543;SDS011;50936;51.660;5.616;2024-03-08T13:41:32;26.50;;;15.25;;
64543;SDS011;50936;51.660;5.616;2024-03-08T13:44:19;26.85;;;15.55;;
64543;SDS011;50936;51.660;5.616;2024-03-08T13:47:07;25.40;;;15.73;;
64543;SDS011;50936;51.660;5.616;2024-03-08T13:49:54;26.40;;;15.40;;
64543;SDS011;50936;51.660;5.616;2024-03-08T13:52:42;26.50;;;15.57;;
64543;SDS011;50936;51.660;5.616;2024-03-08T13:55:30;25.88;;;15.63;;
64543;SDS011;50936;51.660;5.616;2024-03-08T13:58:18;28.08;;;16.20;;
64543;SDS011;50936;51.660;5.616;2024-03-08T14:01:06;27.38;;;15.90;;
64543;SDS011;50936;51.660;5.616;2024-03-08T14:03:59;26.33;;;15.98;;
64543;SDS011;50936;51.660;5.616;2024-03-08T14:06:46;25.90;;;16.40;;
64543;SDS011;50936;51.660;5.616;2024-03-08T14:09:37;27.50;;;15.23;;
64543;SDS011;50936;51.660;5.616;2024-03-08T14:12:26;23.77;;;15.13;;
64543;SDS011;50936;51.660;5.616;2024-03-08T14:15:16;24.88;;;15.40;;
64543;SDS011;50936;51.660;5.616;2024-03-08T14:18:03;29.40;;;16.27;;
64543;SDS011;50936;51.660;5.616;2024-03-08T14:20:53;27.25;;;16.58;;
64543;SDS011;50936;51.660;5.616;2024-03-08T14:23:41;30.92;;;16.13;;
64543;SDS011;50936;51.660;5.616;2024-03-08T14:26:29;29.15;;;16.17;;
64543;SDS011;50936;51.660;5.616;2024-03-08T14:29:17;25.88;;;16.05;;
64543;SDS011;50936;51.660;5.616;2024-03-08T14:32:07;26.15;;;15.93;;
64543;SDS011;50936;51.660;5.616;2024-03-08T14:34:56;29.67;;;16.05;;
64543;SDS011;50936;51.660;5.616;2024-03-08T14:37:45;27.33;;;15.63;;
64543;SDS011;50936;51.660;5.616;2024-03-08T14:40:33;30.65;;;17.02;;
64543;SDS011;50936;51.660;5.616;2024-03-08T14:43:20;27.48;;;15.95;;
64543;SDS011;50936;51.660;5.616;2024-03-08T14:46:08;29.05;;;16.30;;
64543;SDS011;50936;51.660;5.616;2024-03-08T14:48:55;27.38;;;16.60;;
64543;SDS011;50936;51.660;5.616;2024-03-08T14:51:45;27.23;;;16.70;;
64543;SDS011;50936;51.660;5.616;2024-03-08T14:54:33;28.60;;;16.25;;
64543;SDS011;50936;51.660;5.616;2024-03-08T14:57:20;28.85;;;16.13;;
64543;SDS011;50936;51.660;5.616;2024-03-08T15:00:08;26.60;;;15.45;;
64543;SDS011;50936;51.660;5.616;2024-03-08T15:03:03;27.10;;;15.77;;
64543;SDS011;50936;51.660;5.616;2024-03-08T15:05:53;26.38;;;15.48;;
64543;SDS011;50936;51.660;5.616;2024-03-08T15:08:42;24.95;;;16.35;;
64543;SDS011;50936;51.660;5.616;2024-03-08T15:11:29;23.40;;;14.55;;
64543;SDS011;50936;51.660;5.616;2024-03-08T15:14:17;23.88;;;15.63;;
64543;SDS011;50936;51.660;5.616;2024-03-08T15:17:06;25.70;;;15.70;;
64543;SDS011;50936;51.660;5.616;2024-03-08T15:19:57;25.75;;;15.48;;
64543;SDS011;50936;51.660;5.616;2024-03-08T15:22:48;24.60;;;15.18;;
64543;SDS011;50936;51.660;5.616;2024-03-08T15:25:35;26.33;;;15.43;;
64543;SDS011;50936;51.660;5.616;2024-03-08T15:28:25;28.33;;;15.60;;
64543;SDS011;50936;51.660;5.616;2024-03-08T15:31:21;24.50;;;15.35;;
64543;SDS011;50936;51.660;5.616;2024-03-08T15:34:11;24.00;;;14.20;;
64543;SDS011;50936;51.660;5.616;2024-03-08T15:37:00;27.20;;;14.73;;
64543;SDS011;50936;51.660;5.616;2024-03-08T15:39:49;26.30;;;15.07;;
64543;SDS011;50936;51.660;5.616;2024-03-08T15:42:36;29.30;;;15.48;;
64543;SDS011;50936;51.660;5.616;2024-03-08T15:45:24;28.50;;;16.10;;
64543;SDS011;50936;51.660;5.616;2024-03-08T15:48:13;25.90;;;15.25;;
64543;SDS011;50936;51.660;5.616;2024-03-08T15:51:03;28.23;;;15.98;;
64543;SDS011;50936;51.660;5.616;2024-03-08T15:53:54;26.60;;;15.13;;
64543;SDS011;50936;51.660;5.616;2024-03-08T15:56:43;25.17;;;14.50;;
64543;SDS011;50936;51.660;5.616;2024-03-08T15:59:31;25.83;;;15.48;;
64543;SDS011;50936;51.660;5.616;2024-03-08T16:02:23;25.80;;;15.57;;
64543;SDS011;50936;51.660;5.616;2024-03-08T16:05:11;25.08;;;14.75;;
64543;SDS011;50936;51.660;5.616;2024-03-08T16:08:01;25.52;;;14.40;;
64543;SDS011;50936;51.660;5.616;2024-03-08T16:13:41;29.27;;;14.88;;
64543;SDS011;50936;51.660;5.616;2024-03-08T16:16:29;24.20;;;14.50;;
64543;SDS011;50936;51.660;5.616;2024-03-08T16:19:17;25.85;;;15.43;;
64543;SDS011;50936;51.660;5.616;2024-03-08T16:22:04;25.05;;;15.20;;
64543;SDS011;50936;51.660;5.616;2024-03-08T16:24:52;27.92;;;15.18;;
64543;SDS011;50936;51.660;5.616;2024-03-08T16:27:40;27.05;;;14.73;;
64543;SDS011;50936;51.660;5.616;2024-03-08T16:30:28;25.80;;;16.02;;
64543;SDS011;50936;51.660;5.616;2024-03-08T16:33:19;27.70;;;14.77;;
64543;SDS011;50936;51.660;5.616;2024-03-08T16:36:10;23.88;;;14.35;;
64543;SDS011;50936;51.660;5.616;2024-03-08T16:39:00;26.15;;;15.73;;
64543;SDS011;50936;51.660;5.616;2024-03-08T16:41:49;26.40;;;14.75;;